createdAt,value
2023-03-29T00:00:04.829Z,943.47
2023-03-29T00:01:04.834Z,943.43
2023-03-29T00:02:04.837Z,943.40
2023-03-29T00:03:04.964Z,943.36
2023-03-29T00:04:04.982Z,943.47
2023-03-29T00:05:04.745Z,943.47
2023-03-29T00:06:04.748Z,943.44
2023-03-29T00:07:05.070Z,943.47
2023-03-29T00:08:04.849Z,943.43
2023-03-29T00:09:04.724Z,943.47
2023-03-29T00:10:04.846Z,943.55
2023-03-29T00:11:05.044Z,943.50
2023-03-29T00:12:04.662Z,943.45
2023-03-29T00:13:04.666Z,943.48
2023-03-29T00:14:05.032Z,943.52
2023-03-29T00:15:04.654Z,943.49
2023-03-29T00:16:04.645Z,943.55
2023-03-29T00:17:04.920Z,943.45
2023-03-29T00:18:04.678Z,943.51
2023-03-29T00:19:04.582Z,943.45
2023-03-29T00:20:04.591Z,943.47
2023-03-29T00:21:04.803Z,943.47
2023-03-29T00:22:04.575Z,943.44
2023-03-29T00:23:04.553Z,943.48
2023-03-29T00:24:04.556Z,943.53
2023-03-29T00:25:04.579Z,943.59
2023-03-29T00:26:07.735Z,943.58
2023-03-29T00:27:04.506Z,943.63
2023-03-29T00:28:04.511Z,943.68
2023-03-29T00:29:04.479Z,943.70
2023-03-29T00:30:04.528Z,943.68
2023-03-29T00:31:04.799Z,943.65
2023-03-29T00:32:04.536Z,943.64
2023-03-29T00:33:04.540Z,943.58
2023-03-29T00:34:04.432Z,943.55
2023-03-29T00:35:04.518Z,943.53
2023-03-29T00:36:04.515Z,943.56
2023-03-29T00:37:04.480Z,943.54
2023-03-29T00:38:04.392Z,943.54
2023-03-29T00:39:04.410Z,943.51
2023-03-29T00:40:04.377Z,943.45
2023-03-29T00:41:05.022Z,943.39
2023-03-29T00:42:04.448Z,943.34
2023-03-29T00:43:04.334Z,943.36
2023-03-29T00:44:04.347Z,943.28
2023-03-29T00:45:04.329Z,943.28
2023-03-29T00:46:04.335Z,943.32
2023-03-29T00:47:04.352Z,943.30
2023-03-29T00:48:05.082Z,943.35
2023-03-29T00:49:04.270Z,943.30
2023-03-29T00:50:04.258Z,943.24
2023-03-29T00:51:04.597Z,943.18
2023-03-29T00:52:04.242Z,943.14
2023-03-29T00:53:04.257Z,943.11
2023-03-29T00:54:04.227Z,943.10
2023-03-29T00:55:04.251Z,943.04
2023-03-29T00:56:04.241Z,943.03
2023-03-29T00:57:04.352Z,943.03
2023-03-29T00:58:04.213Z,943.04
2023-03-29T00:59:04.238Z,943.09
2023-03-29T01:00:04.169Z,943.06
2023-03-29T01:01:04.415Z,943.04
2023-03-29T01:02:04.257Z,942.95
2023-03-29T01:03:04.222Z,942.87
2023-03-29T01:04:04.308Z,942.77
2023-03-29T01:05:04.105Z,942.71
2023-03-29T01:06:04.164Z,942.71
2023-03-29T01:07:04.155Z,942.64
2023-03-29T01:08:04.078Z,942.62
2023-03-29T01:09:04.076Z,942.65
2023-03-29T01:10:04.058Z,942.67
2023-03-29T01:11:04.323Z,942.74
2023-03-29T01:12:04.062Z,942.77
2023-03-29T01:13:04.044Z,942.79
2023-03-29T01:14:04.037Z,942.78
2023-03-29T01:15:04.041Z,942.76
2023-03-29T01:16:04.065Z,942.67
2023-03-29T01:17:04.010Z,942.69
2023-03-29T01:18:04.171Z,942.66
2023-03-29T01:19:03.992Z,942.59
2023-03-29T01:20:03.992Z,942.64
2023-03-29T01:21:04.100Z,942.63
2023-03-29T01:22:03.943Z,942.64
2023-03-29T01:23:03.936Z,942.64
2023-03-29T01:24:03.921Z,942.63
2023-03-29T01:25:04.001Z,942.59
2023-03-29T01:26:03.930Z,942.61
2023-03-29T01:27:03.927Z,942.59
2023-03-29T01:28:03.878Z,942.54
2023-03-29T01:29:04.071Z,942.57
2023-03-29T01:30:03.916Z,942.56
2023-03-29T01:31:04.027Z,942.52
2023-03-29T01:32:03.969Z,942.52
2023-03-29T01:33:03.892Z,942.49
2023-03-29T01:34:03.826Z,942.49
2023-03-29T01:35:03.826Z,942.51
2023-03-29T01:36:04.023Z,942.51
2023-03-29T01:37:03.797Z,942.48
2023-03-29T01:38:03.783Z,942.45
2023-03-29T01:39:03.789Z,942.38
2023-03-29T01:40:04.078Z,942.40
2023-03-29T01:41:04.130Z,942.34
2023-03-29T01:42:04.059Z,942.28
2023-03-29T01:43:03.835Z,942.22
2023-03-29T01:44:03.783Z,942.23
2023-03-29T01:45:03.756Z,942.23
2023-03-29T01:46:03.802Z,942.15
2023-03-29T01:47:03.709Z,942.19
2023-03-29T01:48:03.714Z,942.14
2023-03-29T01:49:03.898Z,942.13
2023-03-29T01:50:03.653Z,942.11
2023-03-29T01:51:03.897Z,942.04
2023-03-29T01:52:03.664Z,942.01
2023-03-29T01:53:03.628Z,942.04
2023-03-29T01:54:03.631Z,942.03
2023-03-29T01:55:03.775Z,941.92
2023-03-29T01:56:03.626Z,941.87
2023-03-29T01:57:03.775Z,941.88
2023-03-29T01:58:03.589Z,941.90
2023-03-29T01:59:04.585Z,941.88
2023-03-29T02:00:03.640Z,941.97
2023-03-29T02:01:03.866Z,941.98
2023-03-29T02:02:03.547Z,941.91
2023-03-29T02:03:03.636Z,941.84
2023-03-29T02:04:03.524Z,941.80
2023-03-29T02:05:03.606Z,941.76
2023-03-29T02:06:03.498Z,941.82
2023-03-29T02:07:03.470Z,941.87
2023-03-29T02:08:03.461Z,941.78
2023-03-29T02:09:03.452Z,941.78
2023-03-29T02:10:03.505Z,941.72
2023-03-29T02:11:03.638Z,941.77
2023-03-29T02:12:03.459Z,941.77
2023-03-29T02:13:03.459Z,941.84
2023-03-29T02:14:03.453Z,941.77
2023-03-29T02:15:03.407Z,941.84
2023-03-29T02:16:03.447Z,941.73
2023-03-29T02:17:03.383Z,941.79
2023-03-29T02:18:03.455Z,941.76
2023-03-29T02:19:03.363Z,941.75
2023-03-29T02:20:03.378Z,941.73
2023-03-29T02:21:03.646Z,941.79
2023-03-29T02:22:03.315Z,941.83
2023-03-29T02:23:03.330Z,941.80
2023-03-29T02:24:03.319Z,941.83
2023-03-29T02:25:03.296Z,941.92
2023-03-29T02:26:03.350Z,941.88
2023-03-29T02:27:03.293Z,941.89
2023-03-29T02:28:03.287Z,941.88
2023-03-29T02:29:03.247Z,941.91
2023-03-29T02:30:03.238Z,941.89
2023-03-29T02:31:03.600Z,941.85
2023-03-29T02:32:03.266Z,941.76
2023-03-29T02:33:03.241Z,941.74
2023-03-29T02:34:03.265Z,941.69
2023-03-29T02:35:03.182Z,941.82
2023-03-29T02:36:03.267Z,941.83
2023-03-29T02:37:03.192Z,941.97
2023-03-29T02:38:03.145Z,941.82
2023-03-29T02:39:03.171Z,941.76
2023-03-29T02:40:03.170Z,941.80
2023-03-29T02:41:03.469Z,941.81
2023-03-29T02:42:03.112Z,941.82
2023-03-29T02:43:03.141Z,941.83
2023-03-29T02:44:03.221Z,941.85
2023-03-29T02:45:03.092Z,941.80
2023-03-29T02:46:03.136Z,941.88
2023-03-29T02:47:03.174Z,941.88
2023-03-29T02:48:03.121Z,941.88
2023-03-29T02:49:03.047Z,941.89
2023-03-29T02:50:03.059Z,941.90
2023-03-29T02:51:03.327Z,941.93
2023-03-29T02:52:03.037Z,941.94
2023-03-29T02:53:03.000Z,941.90
2023-03-29T02:54:03.010Z,941.99
2023-03-29T02:55:03.053Z,941.94
2023-03-29T02:56:02.974Z,941.97
2023-03-29T02:57:02.968Z,942.03
2023-03-29T02:58:02.969Z,942.14
2023-03-29T02:59:02.941Z,942.09
2023-03-29T03:00:02.977Z,942.05
2023-03-29T03:01:03.153Z,942.05
2023-03-29T03:02:02.938Z,942.05
2023-03-29T03:03:02.968Z,942.05
2023-03-29T03:04:02.918Z,942.04
2023-03-29T03:05:02.901Z,942.05
2023-03-29T03:06:02.892Z,942.00
2023-03-29T03:07:02.870Z,942.02
2023-03-29T03:08:02.882Z,941.97
2023-03-29T03:09:02.828Z,942.05
2023-03-29T03:10:02.854Z,942.01
2023-03-29T03:11:03.161Z,942.04
2023-03-29T03:12:02.839Z,942.02
2023-03-29T03:13:02.841Z,941.93
2023-03-29T03:14:02.787Z,941.96
2023-03-29T03:15:02.780Z,941.89
2023-03-29T03:16:02.820Z,941.79
2023-03-29T03:17:04.731Z,941.64
2023-03-29T03:18:02.781Z,941.55
2023-03-29T03:19:10.417Z,941.44
2023-03-29T03:20:02.715Z,941.49
2023-03-29T03:21:02.914Z,941.44
2023-03-29T03:22:02.716Z,941.38
2023-03-29T03:23:02.685Z,941.35
2023-03-29T03:24:02.677Z,941.30
2023-03-29T03:25:02.685Z,941.29
2023-03-29T03:26:02.670Z,941.33
2023-03-29T03:27:02.654Z,941.32
2023-03-29T03:28:02.699Z,941.38
2023-03-29T03:29:02.634Z,941.39
2023-03-29T03:30:02.607Z,941.46
2023-03-29T03:31:02.793Z,941.44
2023-03-29T03:32:02.667Z,941.39
2023-03-29T03:33:02.622Z,941.47
2023-03-29T03:34:02.629Z,941.45
2023-03-29T03:35:02.587Z,941.40
2023-03-29T03:36:02.635Z,941.42
2023-03-29T03:37:02.604Z,941.41
2023-03-29T03:38:02.581Z,941.46
2023-03-29T03:39:02.522Z,941.39
2023-03-29T03:40:02.542Z,941.38
2023-03-29T03:41:02.714Z,941.38
2023-03-29T03:42:02.700Z,941.36
2023-03-29T03:43:02.476Z,941.34
2023-03-29T03:44:02.466Z,941.30
2023-03-29T03:45:02.533Z,941.23
2023-03-29T03:46:02.505Z,941.23
2023-03-29T03:47:02.436Z,941.36
2023-03-29T03:48:02.484Z,941.36
2023-03-29T03:49:02.413Z,941.37
2023-03-29T03:50:02.404Z,941.37
2023-03-29T03:51:02.647Z,941.41
2023-03-29T03:52:02.374Z,941.48
2023-03-29T03:53:02.488Z,941.46
2023-03-29T03:54:02.410Z,941.43
2023-03-29T03:55:02.362Z,941.48
2023-03-29T03:56:02.353Z,941.48
2023-03-29T03:57:02.441Z,941.49
2023-03-29T03:58:02.333Z,941.51
2023-03-29T03:59:02.343Z,941.45
2023-03-29T04:00:02.301Z,941.45
2023-03-29T04:01:02.418Z,941.46
2023-03-29T04:02:02.370Z,941.41
2023-03-29T04:03:02.499Z,941.40
2023-03-29T04:04:02.380Z,941.38
2023-03-29T04:05:02.257Z,941.28
2023-03-29T04:06:02.271Z,941.23
2023-03-29T04:07:02.265Z,941.24
2023-03-29T04:08:02.216Z,941.24
2023-03-29T04:09:02.218Z,941.19
2023-03-29T04:10:02.243Z,941.19
2023-03-29T04:11:02.314Z,941.14
2023-03-29T04:12:02.192Z,941.12
2023-03-29T04:13:02.207Z,941.17
2023-03-29T04:14:02.159Z,941.18
2023-03-29T04:15:02.175Z,941.16
2023-03-29T04:16:02.186Z,941.18
2023-03-29T04:17:07.060Z,941.18
2023-03-29T04:18:02.170Z,941.21
2023-03-29T04:19:02.298Z,941.18
2023-03-29T04:20:02.306Z,941.17
2023-03-29T04:21:02.244Z,941.16
2023-03-29T04:22:02.095Z,941.09
2023-03-29T04:23:02.064Z,941.14
2023-03-29T04:24:02.055Z,941.12
2023-03-29T04:25:02.098Z,941.10
2023-03-29T04:26:02.107Z,941.08
2023-03-29T04:27:02.021Z,941.10
2023-03-29T04:28:02.013Z,941.11
2023-03-29T04:29:02.018Z,941.13
2023-03-29T04:30:02.046Z,941.19
2023-03-29T04:31:02.206Z,941.18
2023-03-29T04:32:01.960Z,941.19
2023-03-29T04:33:01.984Z,941.11
2023-03-29T04:34:02.016Z,941.11
2023-03-29T04:35:01.957Z,941.04
2023-03-29T04:36:01.969Z,941.08
2023-03-29T04:37:01.927Z,941.09
2023-03-29T04:38:01.929Z,941.09
2023-03-29T04:39:01.926Z,941.03
2023-03-29T04:40:01.894Z,940.99
2023-03-29T04:41:02.819Z,941.03
2023-03-29T04:42:01.934Z,941.05
2023-03-29T04:43:01.878Z,941.08
2023-03-29T04:44:01.906Z,941.04
2023-03-29T04:45:01.982Z,941.05
2023-03-29T04:46:01.926Z,941.07
2023-03-29T04:47:01.820Z,941.09
2023-03-29T04:48:01.886Z,941.08
2023-03-29T04:49:01.828Z,940.99
2023-03-29T04:50:01.794Z,940.97
2023-03-29T04:51:02.011Z,940.94
2023-03-29T04:52:01.773Z,940.89
2023-03-29T04:53:01.827Z,940.89
2023-03-29T04:54:01.757Z,940.85
2023-03-29T04:55:01.744Z,940.82
2023-03-29T04:56:01.745Z,940.85
2023-03-29T04:57:01.767Z,940.83
2023-03-29T04:58:01.745Z,940.80
2023-03-29T04:59:01.697Z,940.85
2023-03-29T05:00:01.693Z,940.85
2023-03-29T05:01:01.976Z,940.88
2023-03-29T05:02:01.700Z,940.87
2023-03-29T05:03:01.731Z,940.87
2023-03-29T05:04:01.707Z,940.92
2023-03-29T05:05:01.645Z,940.90
2023-03-29T05:06:01.662Z,940.89
2023-03-29T05:07:01.617Z,940.93
2023-03-29T05:08:01.605Z,940.92
2023-03-29T05:09:01.669Z,940.95
2023-03-29T05:10:01.574Z,940.87
2023-03-29T05:11:01.840Z,940.88
2023-03-29T05:12:01.627Z,940.87
2023-03-29T05:13:01.562Z,940.87
2023-03-29T05:14:01.565Z,940.89
2023-03-29T05:15:01.539Z,940.90
2023-03-29T05:16:01.585Z,940.94
2023-03-29T05:17:01.533Z,940.98
2023-03-29T05:18:01.563Z,940.99
2023-03-29T05:19:01.501Z,941.03
2023-03-29T05:20:01.539Z,941.01
2023-03-29T05:21:01.789Z,941.02
2023-03-29T05:22:01.562Z,941.10
2023-03-29T05:23:01.484Z,941.06
2023-03-29T05:24:01.480Z,941.09
2023-03-29T05:25:01.427Z,941.09
2023-03-29T05:26:01.507Z,941.13
2023-03-29T05:27:01.415Z,941.17
2023-03-29T05:28:01.510Z,941.16
2023-03-29T05:29:01.384Z,941.17
2023-03-29T05:30:01.426Z,941.21
2023-03-29T05:31:01.627Z,941.25
2023-03-29T05:32:01.441Z,941.30
2023-03-29T05:33:01.467Z,941.28
2023-03-29T05:34:01.406Z,941.35
2023-03-29T05:35:01.335Z,941.35
2023-03-29T05:36:01.349Z,941.42
2023-03-29T05:37:01.374Z,941.40
2023-03-29T05:38:01.331Z,941.45
2023-03-29T05:39:01.333Z,941.39
2023-03-29T05:40:05.852Z,941.40
2023-03-29T05:41:02.446Z,941.41
2023-03-29T05:42:01.263Z,941.38
2023-03-29T05:43:01.328Z,941.39
2023-03-29T05:44:01.267Z,941.35
2023-03-29T05:45:01.336Z,941.44
2023-03-29T05:46:01.264Z,941.41
2023-03-29T05:47:01.252Z,941.41
2023-03-29T05:48:01.270Z,941.40
2023-03-29T05:49:01.190Z,941.46
2023-03-29T05:50:01.230Z,941.46
2023-03-29T05:51:01.569Z,941.47
2023-03-29T05:52:01.143Z,941.43
2023-03-29T05:53:01.180Z,941.50
2023-03-29T05:54:01.115Z,941.42
2023-03-29T05:55:01.125Z,941.41
2023-03-29T05:56:01.131Z,941.39
2023-03-29T05:57:01.135Z,941.35
2023-03-29T05:58:01.115Z,941.29
2023-03-29T05:59:01.104Z,941.37
2023-03-29T06:00:01.102Z,941.37
2023-03-29T06:01:01.227Z,941.40
2023-03-29T06:02:01.086Z,941.38
2023-03-29T06:03:13.308Z,941.40
2023-03-29T06:04:02.263Z,941.45
2023-03-29T06:05:01.169Z,941.45
2023-03-29T06:06:01.004Z,941.51
2023-03-29T06:07:01.009Z,941.52
2023-03-29T06:08:01.006Z,941.52
2023-03-29T06:09:00.975Z,941.45
2023-03-29T06:10:00.990Z,941.49
2023-03-29T06:11:03.816Z,941.40
2023-03-29T06:12:00.943Z,941.42
2023-03-29T06:13:01.111Z,941.41
2023-03-29T06:14:00.909Z,941.41
2023-03-29T06:15:00.916Z,941.39
2023-03-29T06:16:00.947Z,941.44
2023-03-29T06:17:00.976Z,941.46
2023-03-29T06:18:00.954Z,941.48
2023-03-29T06:19:00.871Z,941.47
2023-03-29T06:20:00.904Z,941.52
2023-03-29T06:21:01.121Z,941.47
2023-03-29T06:22:00.876Z,941.53
2023-03-29T06:23:00.842Z,941.51
2023-03-29T06:24:00.816Z,941.53
2023-03-29T06:25:00.802Z,941.54
2023-03-29T06:26:00.805Z,941.59
2023-03-29T06:27:00.889Z,941.58
2023-03-29T06:28:00.819Z,941.57
2023-03-29T06:29:00.770Z,941.62
2023-03-29T06:30:00.774Z,941.56
2023-03-29T06:31:00.968Z,941.57
2023-03-29T06:32:00.735Z,941.56
2023-03-29T06:33:00.814Z,941.54
2023-03-29T06:34:00.750Z,941.51
2023-03-29T06:35:00.734Z,941.52
2023-03-29T06:36:01.197Z,941.54
2023-03-29T06:37:00.686Z,941.54
2023-03-29T06:38:00.680Z,941.52
2023-03-29T06:39:00.671Z,941.51
2023-03-29T06:40:00.777Z,941.50
2023-03-29T06:41:00.787Z,941.47
2023-03-29T06:42:05.247Z,941.43
2023-03-29T06:43:01.628Z,941.50
2023-03-29T06:44:00.621Z,941.52
2023-03-29T06:45:00.608Z,941.50
2023-03-29T06:46:00.711Z,941.56
2023-03-29T06:47:11.295Z,941.50
2023-03-29T06:48:01.121Z,941.59
2023-03-29T06:49:00.576Z,941.60
2023-03-29T06:50:00.590Z,941.53
2023-03-29T06:51:01.084Z,941.58
2023-03-29T06:52:00.582Z,941.60
2023-03-29T06:53:00.532Z,941.58
2023-03-29T06:54:00.497Z,941.58
2023-03-29T06:55:00.492Z,941.59
2023-03-29T06:56:00.475Z,941.60
2023-03-29T06:57:00.514Z,941.61
2023-03-29T06:58:02.517Z,941.65
2023-03-29T06:59:00.532Z,941.66
2023-03-29T07:00:00.520Z,941.66
2023-03-29T07:01:00.605Z,941.72
2023-03-29T07:02:00.502Z,941.71
2023-03-29T07:03:00.446Z,941.71
2023-03-29T07:04:00.713Z,941.75
2023-03-29T07:05:00.421Z,941.70
2023-03-29T07:06:00.432Z,941.69
2023-03-29T07:07:00.363Z,941.73
2023-03-29T07:08:00.449Z,941.71
2023-03-29T07:09:00.389Z,941.62
2023-03-29T07:10:00.337Z,941.66
2023-03-29T07:11:00.577Z,941.65
2023-03-29T07:12:00.313Z,941.66
2023-03-29T07:13:00.320Z,941.66
2023-03-29T07:14:00.334Z,941.65
2023-03-29T07:15:00.288Z,941.61
2023-03-29T07:16:00.337Z,941.58
2023-03-29T07:17:05.183Z,941.56
2023-03-29T07:18:00.369Z,941.56
2023-03-29T07:19:00.244Z,941.63
2023-03-29T07:20:00.299Z,941.61
2023-03-29T07:21:00.774Z,941.56
2023-03-29T07:22:00.226Z,941.51
2023-03-29T07:23:00.254Z,941.59
2023-03-29T07:24:00.209Z,941.54
2023-03-29T07:25:00.241Z,941.52
2023-03-29T07:26:00.223Z,941.50
2023-03-29T07:27:04.152Z,941.58
2023-03-29T07:28:00.170Z,941.59
2023-03-29T07:29:00.148Z,941.62
2023-03-29T07:30:00.151Z,941.63
2023-03-29T07:31:00.290Z,941.63
2023-03-29T07:32:00.202Z,941.62
2023-03-29T07:33:00.274Z,941.60
2023-03-29T07:34:00.137Z,941.57
2023-03-29T07:35:00.105Z,941.54
2023-03-29T07:36:00.136Z,941.51
2023-03-29T07:37:00.080Z,941.51
2023-03-29T07:38:00.119Z,941.52
2023-03-29T07:39:00.026Z,941.41
2023-03-29T07:40:00.099Z,941.47
2023-03-29T07:41:00.208Z,941.48
2023-03-29T07:42:00.034Z,941.47
2023-03-29T07:42:59.989Z,941.43
2023-03-29T07:44:01.969Z,941.51
2023-03-29T07:44:59.992Z,941.53
2023-03-29T07:46:00.057Z,941.50
2023-03-29T07:47:00.019Z,941.54
2023-03-29T07:48:00.034Z,941.56
2023-03-29T07:49:00.010Z,941.59
2023-03-29T07:49:59.916Z,941.60
2023-03-29T07:51:00.096Z,941.53
2023-03-29T07:51:59.955Z,941.63
2023-03-29T07:52:59.884Z,941.67
2023-03-29T07:53:59.980Z,941.60
2023-03-29T07:54:59.873Z,941.55
2023-03-29T07:55:59.893Z,941.66
2023-03-29T07:56:59.932Z,941.71
2023-03-29T07:57:59.834Z,941.62
2023-03-29T07:58:59.825Z,941.67
2023-03-29T07:59:59.814Z,941.54
2023-03-29T08:01:00.232Z,941.54
2023-03-29T08:01:59.799Z,941.48
2023-03-29T08:02:59.854Z,941.50
2023-03-29T08:03:59.847Z,941.40
2023-03-29T08:04:59.820Z,941.36
2023-03-29T08:05:59.820Z,941.35
2023-03-29T08:06:59.738Z,941.37
2023-03-29T08:07:59.728Z,941.37
2023-03-29T08:08:59.717Z,941.32
2023-03-29T08:09:59.774Z,941.34
2023-03-29T08:10:59.716Z,941.33
2023-03-29T08:11:59.690Z,941.30
2023-03-29T08:12:59.682Z,941.24
2023-03-29T08:13:59.692Z,941.19
2023-03-29T08:14:59.668Z,941.18
2023-03-29T08:15:59.697Z,941.18
2023-03-29T08:16:59.737Z,941.13
2023-03-29T08:17:59.648Z,941.24
2023-03-29T08:18:59.606Z,941.23
2023-03-29T08:21:18.121Z,941.23
2023-03-29T08:22:18.048Z,941.27
2023-03-29T08:23:18.039Z,941.22
2023-03-29T08:24:20.833Z,941.22
2023-03-29T08:25:18.033Z,941.39
2023-03-29T08:26:17.959Z,941.41
2023-03-29T08:27:17.967Z,941.36
2023-03-29T08:28:17.983Z,941.44
2023-03-29T08:29:17.954Z,941.47
2023-03-29T08:30:17.948Z,941.47
2023-03-29T08:31:17.983Z,941.43
2023-03-29T08:32:17.906Z,941.49
2023-03-29T08:33:17.963Z,941.49
2023-03-29T08:34:17.980Z,941.44
2023-03-29T08:35:17.863Z,941.40
2023-03-29T08:36:17.966Z,941.32
2023-03-29T08:37:17.879Z,941.26
2023-03-29T08:38:17.846Z,941.25
2023-03-29T08:39:19.528Z,941.29
2023-03-29T08:40:17.884Z,941.30
2023-03-29T08:41:17.831Z,941.31
2023-03-29T08:42:17.833Z,941.44
2023-03-29T08:43:17.788Z,941.45
2023-03-29T08:44:17.799Z,941.41
2023-03-29T08:45:18.653Z,941.29
2023-03-29T08:46:22.645Z,941.39
2023-03-29T08:47:17.751Z,941.22
2023-03-29T08:48:17.744Z,941.24
2023-03-29T08:49:17.804Z,941.29
2023-03-29T08:50:17.786Z,941.38
2023-03-29T08:51:17.732Z,941.28
2023-03-29T08:52:17.762Z,941.27
2023-03-29T08:53:17.673Z,941.30
2023-03-29T08:54:17.702Z,941.34
2023-03-29T08:55:17.694Z,941.30
2023-03-29T08:56:17.712Z,941.24
2023-03-29T08:57:17.747Z,941.24
2023-03-29T08:58:17.632Z,941.25
2023-03-29T08:59:17.634Z,941.17
2023-03-29T09:00:17.731Z,941.18
2023-03-29T09:01:17.652Z,941.24
2023-03-29T09:02:17.675Z,941.18
2023-03-29T09:03:17.707Z,941.20
2023-03-29T09:04:17.562Z,941.27
2023-03-29T09:05:17.548Z,941.26
2023-03-29T09:06:18.003Z,941.26
2023-03-29T09:07:17.533Z,941.29
2023-03-29T09:08:17.569Z,941.28
2023-03-29T09:09:17.546Z,941.25
2023-03-29T09:10:17.551Z,941.29
2023-03-29T09:11:17.566Z,941.26
2023-03-29T09:12:17.540Z,941.29
2023-03-29T09:13:17.555Z,941.25
2023-03-29T09:14:17.466Z,941.25
2023-03-29T09:15:17.463Z,941.26
2023-03-29T09:16:22.150Z,941.25
2023-03-29T09:17:17.498Z,941.27
2023-03-29T09:18:17.508Z,941.22
2023-03-29T09:19:17.413Z,941.14
2023-03-29T09:20:17.402Z,941.17
2023-03-29T09:21:17.381Z,941.15
2023-03-29T09:22:17.559Z,941.14
2023-03-29T09:23:17.390Z,941.14
2023-03-29T09:24:17.372Z,941.11
2023-03-29T09:25:17.396Z,941.14
2023-03-29T09:26:17.321Z,941.03
2023-03-29T09:27:17.315Z,941.06
2023-03-29T09:28:17.306Z,941.06
2023-03-29T09:29:17.329Z,941.04
2023-03-29T09:30:17.337Z,941.06
2023-03-29T09:31:17.303Z,941.11
2023-03-29T09:32:17.262Z,941.12
2023-03-29T09:33:17.249Z,941.10
2023-03-29T09:34:17.236Z,941.12
2023-03-29T09:35:17.237Z,941.11
2023-03-29T09:36:17.272Z,941.07
2023-03-29T09:37:17.203Z,941.01
2023-03-29T09:38:17.193Z,940.97
2023-03-29T09:39:17.208Z,941.01
2023-03-29T09:40:17.176Z,940.95
2023-03-29T09:41:17.170Z,940.95
2023-03-29T09:42:17.173Z,940.97
2023-03-29T09:43:17.152Z,941.02
2023-03-29T09:44:28.158Z,941.00
2023-03-29T09:45:18.186Z,940.96
2023-03-29T09:46:17.178Z,940.92
2023-03-29T09:47:17.097Z,940.91
2023-03-29T09:48:17.095Z,940.85
2023-03-29T09:49:17.411Z,940.90
2023-03-29T09:50:27.790Z,940.91
2023-03-29T09:51:18.059Z,940.87
2023-03-29T09:52:17.068Z,940.89
2023-03-29T09:53:17.041Z,940.92
2023-03-29T09:54:17.136Z,940.89
2023-03-29T09:55:17.027Z,940.87
2023-03-29T09:56:17.051Z,940.76
2023-03-29T09:57:17.078Z,940.88
2023-03-29T09:58:17.070Z,940.88
2023-03-29T09:59:16.984Z,940.89
2023-03-29T10:00:17.068Z,940.81
2023-03-29T10:01:17.025Z,940.79
2023-03-29T10:02:16.942Z,940.81
2023-03-29T10:03:16.950Z,940.78
2023-03-29T10:04:17.015Z,940.76
2023-03-29T10:05:16.991Z,940.79
2023-03-29T10:06:16.948Z,940.77
2023-03-29T10:07:16.916Z,940.79
2023-03-29T10:08:19.358Z,940.76
2023-03-29T10:09:16.931Z,940.77
2023-03-29T10:10:16.902Z,940.69
2023-03-29T10:11:16.862Z,940.60
2023-03-29T10:12:16.862Z,940.60
2023-03-29T10:13:16.860Z,940.63
2023-03-29T10:14:16.869Z,940.61
2023-03-29T10:15:26.822Z,940.60
2023-03-29T10:16:17.929Z,940.54
2023-03-29T10:17:16.932Z,940.53
2023-03-29T10:18:16.771Z,940.48
2023-03-29T10:19:16.769Z,940.48
2023-03-29T10:20:16.751Z,940.46
2023-03-29T10:21:16.821Z,940.45
2023-03-29T10:22:16.784Z,940.51
2023-03-29T10:23:16.723Z,940.45
2023-03-29T10:24:16.705Z,940.42
2023-03-29T10:25:16.698Z,940.35
2023-03-29T10:26:16.717Z,940.32
2023-03-29T10:27:16.715Z,940.45
2023-03-29T10:28:16.745Z,940.42
2023-03-29T10:29:16.698Z,940.36
2023-03-29T10:30:16.664Z,940.44
2023-03-29T10:31:17.842Z,940.41
2023-03-29T10:32:16.629Z,940.41
2023-03-29T10:33:16.638Z,940.26
2023-03-29T10:34:16.647Z,940.35
2023-03-29T10:35:16.598Z,940.48
2023-03-29T10:36:16.681Z,940.41
2023-03-29T10:37:16.608Z,940.38
2023-03-29T10:38:16.615Z,940.42
2023-03-29T10:39:16.558Z,940.31
2023-03-29T10:40:16.624Z,940.41
2023-03-29T10:41:16.539Z,940.32
2023-03-29T10:42:16.568Z,940.39
2023-03-29T10:43:16.508Z,940.12
2023-03-29T10:44:16.492Z,940.38
2023-03-29T10:45:16.992Z,940.35
2023-03-29T10:46:16.694Z,940.29
2023-03-29T10:47:16.559Z,940.30
2023-03-29T10:48:16.457Z,940.27
2023-03-29T10:49:16.471Z,940.39
2023-03-29T10:50:16.469Z,940.32
2023-03-29T10:51:16.438Z,940.35
2023-03-29T10:52:16.477Z,940.34
2023-03-29T10:53:16.476Z,940.28
2023-03-29T10:54:16.412Z,940.28
2023-03-29T10:55:16.377Z,940.32
2023-03-29T10:56:16.424Z,940.30
2023-03-29T10:57:16.474Z,940.31
2023-03-29T10:58:16.382Z,940.26
2023-03-29T10:59:16.332Z,940.32
2023-03-29T11:00:16.318Z,940.17
2023-03-29T11:01:16.400Z,940.36
2023-03-29T11:02:16.380Z,940.29
2023-03-29T11:03:18.151Z,940.16
2023-03-29T11:04:16.292Z,940.28
2023-03-29T11:05:16.331Z,940.31
2023-03-29T11:06:16.261Z,940.11
2023-03-29T11:07:16.323Z,940.23
2023-03-29T11:08:16.240Z,940.21
2023-03-29T11:09:16.270Z,940.25
2023-03-29T11:10:16.215Z,940.11
2023-03-29T11:11:16.277Z,940.18
2023-03-29T11:12:16.627Z,940.15
2023-03-29T11:13:16.204Z,940.05
2023-03-29T11:14:16.218Z,940.03
2023-03-29T11:15:16.193Z,940.14
2023-03-29T11:16:16.234Z,940.11
2023-03-29T11:17:16.194Z,940.12
2023-03-29T11:18:16.208Z,940.18
2023-03-29T11:19:16.121Z,940.10
2023-03-29T11:20:16.150Z,940.04
2023-03-29T11:21:16.129Z,940.04
2023-03-29T11:22:16.106Z,940.00
2023-03-29T11:23:16.083Z,940.02
2023-03-29T11:24:16.081Z,940.04
2023-03-29T11:25:16.086Z,940.02
2023-03-29T11:26:16.038Z,939.89
2023-03-29T11:27:16.041Z,939.93
2023-03-29T11:28:16.044Z,939.82
2023-03-29T11:29:16.129Z,939.83
2023-03-29T11:30:16.069Z,939.82
2023-03-29T11:31:16.069Z,939.86
2023-03-29T11:32:15.974Z,939.79
2023-03-29T11:33:15.997Z,939.87
2023-03-29T11:34:15.961Z,939.90
2023-03-29T11:35:16.166Z,939.84
2023-03-29T11:36:15.992Z,939.84
2023-03-29T11:37:16.013Z,939.90
2023-03-29T11:38:15.915Z,939.89
2023-03-29T11:39:15.919Z,939.89
2023-03-29T11:40:18.995Z,939.87
2023-03-29T11:41:15.897Z,939.93
2023-03-29T11:42:15.981Z,939.85
2023-03-29T11:43:15.860Z,939.90
2023-03-29T11:44:15.854Z,939.91
2023-03-29T11:45:15.875Z,939.83
2023-03-29T11:46:15.891Z,940.05
2023-03-29T11:47:15.831Z,939.80
2023-03-29T11:48:15.824Z,939.90
2023-03-29T11:49:15.804Z,939.90
2023-03-29T11:50:15.788Z,939.85
2023-03-29T11:51:15.832Z,939.71
2023-03-29T11:52:15.789Z,939.77
2023-03-29T11:53:15.907Z,939.87
2023-03-29T11:54:15.773Z,939.73
2023-03-29T11:55:15.752Z,939.89
2023-03-29T11:56:15.758Z,939.69
2023-03-29T11:57:15.736Z,939.85
2023-03-29T11:58:15.801Z,939.83
2023-03-29T11:59:15.796Z,939.83
2023-03-29T12:00:15.812Z,939.80
2023-03-29T12:01:15.706Z,939.85
2023-03-29T12:02:15.773Z,939.87
2023-03-29T12:03:15.859Z,939.66
2023-03-29T12:04:15.694Z,939.84
2023-03-29T12:05:15.682Z,939.79
2023-03-29T12:06:15.623Z,939.82
2023-03-29T12:07:15.610Z,939.87
2023-03-29T12:08:15.624Z,939.72
2023-03-29T12:09:16.890Z,939.87
2023-03-29T12:10:15.604Z,939.92
2023-03-29T12:11:15.586Z,939.86
2023-03-29T12:12:15.584Z,939.97
2023-03-29T12:13:15.613Z,939.77
2023-03-29T12:14:15.591Z,939.81
2023-03-29T12:15:15.547Z,940.06
2023-03-29T12:16:15.597Z,940.01
2023-03-29T12:17:15.502Z,940.08
2023-03-29T12:18:15.547Z,940.02
2023-03-29T12:19:15.478Z,939.97
2023-03-29T12:20:15.528Z,940.03
2023-03-29T12:21:15.473Z,940.07
2023-03-29T12:22:15.512Z,940.00
2023-03-29T12:23:15.463Z,940.04
2023-03-29T12:24:15.429Z,940.00
2023-03-29T12:25:16.777Z,940.07
2023-03-29T12:26:15.428Z,940.10
2023-03-29T12:27:15.421Z,940.07
2023-03-29T12:28:15.387Z,940.12
2023-03-29T12:29:15.384Z,940.10